Time;durP1;ratioP1;P1;durP2;ratioP2;P2;SDS_P1;SDS_P2;PMS_P1;PMS_P2;Temp;Humidity;BMP_temperature;BMP_pressure;BME280_temperature;BME280_humidity;BME280_pressure;Samples;Min_cycle;Max_cycle;Signal;HPM_P1;HPM_P2
2023/01/16 00:00:57;;;;;;;1.90;1.23;;;;;;;;;;5042385;28;20033;-40
2023/01/16 00:03:23;;;;;;;0.45;0.30;;;;;;;;;;5044176;28;20033;-40
2023/01/16 00:05:49;;;;;;;1.73;0.52;;;;;;;;;;5041209;28;20013;-40
2023/01/16 00:08:15;;;;;;;2.50;0.73;;;;;;;;;;5040074;28;20367;-40
2023/01/16 00:10:41;;;;;;;0.95;0.45;;;;;;;;;;5042681;28;20037;-41
2023/01/16 00:13:07;;;;;;;5.05;0.60;;;;;;;;;;5042660;28;20070;-40
2023/01/16 00:15:33;;;;;;;2.75;0.57;;;;;;;;;;5039908;28;20125;-40
2023/01/16 00:17:59;;;;;;;1.63;0.70;;;;;;;;;;5041176;28;20029;-40
2023/01/16 00:20:25;;;;;;;6.22;0.75;;;;;;;;;;5044982;28;20074;-40
2023/01/16 00:22:51;;;;;;;1.35;0.60;;;;;;;;;;5063726;28;20020;-40
2023/01/16 00:25:17;;;;;;;2.75;0.70;;;;;;;;;;5053685;28;20032;-40
2023/01/16 00:27:43;;;;;;;0.90;0.50;;;;;;;;;;5065049;28;20096;-40
2023/01/16 00:30:10;;;;;;;1.08;0.50;;;;;;;;;;5051009;28;20059;-41
2023/01/16 00:32:36;;;;;;;3.30;0.60;;;;;;;;;;5052133;28;20036;-40
2023/01/16 00:35:02;;;;;;;3.33;0.70;;;;;;;;;;5051632;28;20028;-40
2023/01/16 00:37:28;;;;;;;2.20;0.77;;;;;;;;;;5051665;28;20576;-40
2023/01/16 00:39:54;;;;;;;1.50;0.50;;;;;;;;;;5052154;28;20036;-40
2023/01/16 00:42:20;;;;;;;0.98;0.60;;;;;;;;;;5051782;28;20033;-40
2023/01/16 00:44:46;;;;;;;0.85;0.50;;;;;;;;;;5050531;28;20028;-40
2023/01/16 00:47:12;;;;;;;1.63;0.57;;;;;;;;;;5051618;28;20029;-41
2023/01/16 00:49:38;;;;;;;2.67;0.60;;;;;;;;;;5052027;28;20036;-40
2023/01/16 00:52:04;;;;;;;0.98;0.50;;;;;;;;;;5052185;28;20059;-40
2023/01/16 00:54:30;;;;;;;0.73;0.40;;;;;;;;;;5051164;28;20029;-40
2023/01/16 00:56:56;;;;;;;1.33;0.93;;;;;;;;;;5052095;28;20040;-39
2023/01/16 00:59:22;;;;;;;1.00;0.75;;;;;;;;;;5050765;28;20021;-40
2023/01/16 01:01:48;;;;;;;2.47;0.70;;;;;;;;;;5049393;28;20024;-40
2023/01/16 01:04:14;;;;;;;1.73;0.65;;;;;;;;;;5051935;28;20079;-40
2023/01/16 01:06:40;;;;;;;1.98;1.25;;;;;;;;;;5052183;28;20070;-40
2023/01/16 01:09:06;;;;;;;2.03;0.60;;;;;;;;;;5051446;28;20036;-40
2023/01/16 01:11:32;;;;;;;1.50;0.60;;;;;;;;;;5051523;28;20017;-40
2023/01/16 01:13:58;;;;;;;1.10;0.50;;;;;;;;;;5051629;28;20454;-38
2023/01/16 01:16:24;;;;;;;3.38;0.68;;;;;;;;;;5049959;28;20053;-40
2023/01/16 01:18:50;;;;;;;0.88;0.60;;;;;;;;;;5050150;28;20033;-40
2023/01/16 01:21:16;;;;;;;1.58;0.68;;;;;;;;;;5051196;28;20477;-40
2023/01/16 01:23:42;;;;;;;1.35;0.43;;;;;;;;;;5069858;28;20155;-40
2023/01/16 01:26:09;;;;;;;4.57;0.55;;;;;;;;;;5071723;28;20104;-40
2023/01/16 01:28:35;;;;;;;0.90;0.52;;;;;;;;;;5070886;28;20021;-41
2023/01/16 01:31:02;;;;;;;0.82;0.40;;;;;;;;;;5062686;28;20029;-40
2023/01/16 01:33:28;;;;;;;2.03;0.40;;;;;;;;;;5050679;28;20030;-40
2023/01/16 01:35:54;;;;;;;1.27;0.50;;;;;;;;;;5050460;28;20029;-40
2023/01/16 01:38:20;;;;;;;3.13;0.88;;;;;;;;;;5050802;28;20497;-40
2023/01/16 01:40:46;;;;;;;1.63;0.40;;;;;;;;;;5054913;28;20033;-40
2023/01/16 01:43:13;;;;;;;0.98;0.55;;;;;;;;;;5054580;28;20027;-41
2023/01/16 01:45:40;;;;;;;1.33;0.60;;;;;;;;;;5055412;28;20488;-40
2023/01/16 01:48:06;;;;;;;1.27;0.47;;;;;;;;;;5055663;28;20452;-40
2023/01/16 01:50:32;;;;;;;1.33;0.60;;;;;;;;;;5054331;28;20025;-40
2023/01/16 01:53:00;;;;;;;1.33;0.57;;;;;;;;;;5055767;28;20067;-40
2023/01/16 01:55:26;;;;;;;2.42;0.60;;;;;;;;;;5053680;28;20197;-40
2023/01/16 01:57:56;;;;;;;1.05;0.52;;;;;;;;;;5055425;28;20025;-40
2023/01/16 02:00:23;;;;;;;1.15;0.50;;;;;;;;;;5053265;28;20064;-40
2023/01/16 02:02:53;;;;;;;1.48;0.45;;;;;;;;;;5055296;28;20036;-40
2023/01/16 02:05:22;;;;;;;1.20;0.40;;;;;;;;;;5054254;28;20029;-40
2023/01/16 02:07:48;;;;;;;3.00;0.50;;;;;;;;;;5055544;28;20048;-40
2023/01/16 02:10:26;;;;;;;0.90;0.50;;;;;;;;;;5052793;28;20032;-41
2023/01/16 02:12:53;;;;;;;1.58;0.40;;;;;;;;;;5054981;28;20469;-40
2023/01/16 02:15:20;;;;;;;1.40;0.80;;;;;;;;;;5053632;28;20111;-40
2023/01/16 02:20:33;;;;;;;0.60;0.60;;;;;;;;;;5053836;28;20548;-40
2023/01/16 02:23:20;;;;;;;1.67;0.57;;;;;;;;;;5067261;28;20036;-40
2023/01/16 02:26:09;;;;;;;0.50;0.30;;;;;;;;;;5075183;28;20040;-40
2023/01/16 02:28:35;;;;;;;1.88;0.50;;;;;;;;;;5054084;28;20032;-40
2023/01/16 02:31:11;;;;;;;1.05;0.60;;;;;;;;;;5053214;28;20029;-40
2023/01/16 02:33:46;;;;;;;0.55;0.40;;;;;;;;;;5054313;28;20025;-40
2023/01/16 02:36:31;;;;;;;1.33;0.50;;;;;;;;;;5053608;28;20028;-40
2023/01/16 02:39:15;;;;;;;3.22;0.60;;;;;;;;;;5054167;28;20071;-40
2023/01/16 02:41:50;;;;;;;2.58;0.50;;;;;;;;;;5053661;28;20035;-40
2023/01/16 02:44:36;;;;;;;1.95;0.55;;;;;;;;;;5053354;28;20032;-41
2023/01/16 02:47:14;;;;;;;1.77;0.68;;;;;;;;;;5054710;28;20098;-40
2023/01/16 02:49:41;;;;;;;0.98;0.50;;;;;;;;;;5054309;28;20042;-40
2023/01/16 02:52:07;;;;;;;1.52;0.40;;;;;;;;;;5052978;28;20021;-42
2023/01/16 02:54:38;;;;;;;1.58;0.60;;;;;;;;;;5053294;28;20028;-41
2023/01/16 02:57:07;;;;;;;2.13;0.57;;;;;;;;;;5054727;28;20072;-41
2023/01/16 02:59:34;;;;;;;0.63;0.30;;;;;;;;;;5052095;28;20067;-41
2023/01/16 03:02:01;;;;;;;1.42;0.43;;;;;;;;;;5053068;28;20056;-40
2023/01/16 03:04:39;;;;;;;0.45;0.30;;;;;;;;;;5053210;28;20029;-41
2023/01/16 03:07:20;;;;;;;0.50;0.40;;;;;;;;;;5053989;28;20112;-40
2023/01/16 03:09:55;;;;;;;0.87;0.47;;;;;;;;;;5053733;28;20033;-40
2023/01/16 03:12:24;;;;;;;1.73;0.40;;;;;;;;;;5053192;28;20023;-40
2023/01/16 03:15:09;;;;;;;1.42;0.50;;;;;;;;;;5052225;28;20068;-41
2023/01/16 03:17:53;;;;;;;0.93;0.30;;;;;;;;;;5053708;28;20029;-40
2023/01/16 03:20:25;;;;;;;0.52;0.30;;;;;;;;;;5052943;28;20365;-40
2023/01/16 03:23:00;;;;;;;1.08;0.47;;;;;;;;;;5064984;28;20024;-41
2023/01/16 03:25:38;;;;;;;0.43;0.35;;;;;;;;;;5072325;28;20039;-40
2023/01/16 03:28:04;;;;;;;1.95;0.60;;;;;;;;;;5073943;28;20024;-41
2023/01/16 03:30:54;;;;;;;1.23;0.40;;;;;;;;;;5069417;28;20021;-40
2023/01/16 03:33:23;;;;;;;1.27;0.30;;;;;;;;;;5024295;28;20061;-41
2023/01/16 03:35:53;;;;;;;1.33;0.70;;;;;;;;;;5033761;28;20032;-40
2023/01/16 03:38:19;;;;;;;1.17;0.45;;;;;;;;;;5032961;28;20036;-41
2023/01/16 03:40:46;;;;;;;1.00;0.40;;;;;;;;;;5053814;28;20025;-40
2023/01/16 03:43:15;;;;;;;1.20;0.63;;;;;;;;;;5052492;28;20025;-42
2023/01/16 03:45:51;;;;;;;2.25;0.50;;;;;;;;;;5053463;28;20025;-40
2023/01/16 03:48:32;;;;;;;1.05;0.40;;;;;;;;;;5052054;28;20116;-40
2023/01/16 03:51:01;;;;;;;1.65;0.50;;;;;;;;;;5052311;28;20041;-40
2023/01/16 03:53:30;;;;;;;0.57;0.40;;;;;;;;;;5052249;28;20036;-40
2023/01/16 03:56:05;;;;;;;0.77;0.40;;;;;;;;;;5053171;28;20031;-40
2023/01/16 03:58:34;;;;;;;0.90;0.40;;;;;;;;;;5052268;28;20052;-40
2023/01/16 04:01:08;;;;;;;1.02;0.60;;;;;;;;;;5051968;28;20025;-40
2023/01/16 04:03:38;;;;;;;0.43;0.40;;;;;;;;;;5052255;28;20033;-40
2023/01/16 04:06:08;;;;;;;0.68;0.43;;;;;;;;;;5052265;28;20460;-41
2023/01/16 04:08:37;;;;;;;2.10;0.57;;;;;;;;;;5052498;28;20116;-40
2023/01/16 04:11:03;;;;;;;0.85;0.40;;;;;;;;;;5053170;28;20035;-40
2023/01/16 04:13:33;;;;;;;0.55;0.40;;;;;;;;;;5051600;28;20374;-40
2023/01/16 04:16:01;;;;;;;0.93;0.65;;;;;;;;;;5052505;28;20049;-40
2023/01/16 04:18:31;;;;;;;0.98;0.40;;;;;;;;;;5051604;28;20159;-40
2023/01/16 04:20:57;;;;;;;1.65;0.40;;;;;;;;;;5052980;28;20013;-40
2023/01/16 04:23:23;;;;;;;0.52;0.30;;;;;;;;;;5062391;28;20160;-40
2023/01/16 04:25:49;;;;;;;0.73;0.45;;;;;;;;;;5052594;28;20017;-41
2023/01/16 04:28:15;;;;;;;1.55;0.40;;;;;;;;;;5051420;28;20029;-41
2023/01/16 04:30:41;;;;;;;1.20;0.40;;;;;;;;;;5051157;28;20032;-40
2023/01/16 04:33:07;;;;;;;1.52;0.40;;;;;;;;;;5053032;28;20082;-40
2023/01/16 04:35:33;;;;;;;1.08;0.47;;;;;;;;;;5052043;28;20020;-40
2023/01/16 04:37:59;;;;;;;1.70;0.52;;;;;;;;;;5052225;28;20535;-40
2023/01/16 04:40:26;;;;;;;1.23;0.40;;;;;;;;;;5051366;28;20079;-40
2023/01/16 04:42:52;;;;;;;0.88;0.32;;;;;;;;;;5051315;28;20032;-40
2023/01/16 04:45:18;;;;;;;1.08;0.40;;;;;;;;;;5051342;28;20017;-40
2023/01/16 04:47:47;;;;;;;0.85;0.40;;;;;;;;;;5052282;28;20025;-41
2023/01/16 04:50:13;;;;;;;1.13;0.55;;;;;;;;;;5051157;28;20032;-40
2023/01/16 04:52:40;;;;;;;0.93;0.50;;;;;;;;;;5052405;28;20025;-40
2023/01/16 04:55:06;;;;;;;0.90;0.30;;;;;;;;;;5052059;28;20040;-40
2023/01/16 04:57:32;;;;;;;0.73;0.45;;;;;;;;;;5051340;28;20064;-40
2023/01/16 04:59:58;;;;;;;1.35;0.40;;;;;;;;;;5050128;28;20434;-40
2023/01/16 05:02:24;;;;;;;0.57;0.30;;;;;;;;;;5049007;28;20028;-40
2023/01/16 05:04:50;;;;;;;0.80;0.65;;;;;;;;;;5051776;28;20082;-40
2023/01/16 05:07:16;;;;;;;0.38;0.30;;;;;;;;;;5051084;28;20492;-40
2023/01/16 05:09:43;;;;;;;1.40;0.40;;;;;;;;;;5051727;28;20374;-40
2023/01/16 05:12:09;;;;;;;0.75;0.32;;;;;;;;;;5051718;28;20025;-41
2023/01/16 05:14:35;;;;;;;0.35;0.25;;;;;;;;;;5049249;28;20104;-40
2023/01/16 05:17:01;;;;;;;0.73;0.40;;;;;;;;;;5051600;28;20029;-40
2023/01/16 05:19:27;;;;;;;1.00;0.38;;;;;;;;;;5051091;28;20032;-40
2023/01/16 05:21:53;;;;;;;0.82;0.63;;;;;;;;;;5054936;28;20036;-40
2023/01/16 05:24:18;;;;;;;0.90;0.40;;;;;;;;;;5070520;28;20458;-40
2023/01/16 05:26:44;;;;;;;0.85;0.30;;;;;;;;;;5071980;28;20054;-40
2023/01/16 05:29:10;;;;;;;2.50;0.50;;;;;;;;;;5070828;28;20033;-41
2023/01/16 05:31:36;;;;;;;1.27;0.50;;;;;;;;;;5053860;28;20107;-40
2023/01/16 05:34:02;;;;;;;0.98;0.38;;;;;;;;;;5051135;28;20103;-40
2023/01/16 05:36:28;;;;;;;1.73;0.38;;;;;;;;;;5048857;28;20024;-40
2023/01/16 05:38:54;;;;;;;0.85;0.52;;;;;;;;;;5049242;28;20428;-40
2023/01/16 05:41:20;;;;;;;0.52;0.40;;;;;;;;;;5049581;28;20025;-40
2023/01/16 05:43:46;;;;;;;1.20;0.43;;;;;;;;;;5051236;28;20065;-40
2023/01/16 05:46:12;;;;;;;0.80;0.47;;;;;;;;;;5050728;28;20086;-40
2023/01/16 05:48:39;;;;;;;1.80;0.50;;;;;;;;;;5051114;28;20032;-40
2023/01/16 05:51:05;;;;;;;1.55;0.50;;;;;;;;;;5051706;28;20060;-40
2023/01/16 05:53:31;;;;;;;1.92;0.47;;;;;;;;;;5049274;28;20025;-40
2023/01/16 05:55:57;;;;;;;0.90;0.70;;;;;;;;;;5051489;28;20029;-40
2023/01/16 05:58:23;;;;;;;0.47;0.40;;;;;;;;;;5050222;28;20420;-40
2023/01/16 06:00:49;;;;;;;1.35;0.85;;;;;;;;;;5051397;28;20051;-40
2023/01/16 06:03:15;;;;;;;0.65;0.50;;;;;;;;;;5049882;28;20061;-40
2023/01/16 06:05:41;;;;;;;2.83;0.57;;;;;;;;;;5051243;28;20412;-40
2023/01/16 06:08:07;;;;;;;1.60;0.63;;;;;;;;;;5051087;28;20112;-40
2023/01/16 06:10:33;;;;;;;0.68;0.40;;;;;;;;;;5050687;28;20029;-40
2023/01/16 06:13:00;;;;;;;0.68;0.28;;;;;;;;;;5051679;28;20465;-40
2023/01/16 06:15:26;;;;;;;0.82;0.50;;;;;;;;;;5049538;28;20049;-40
2023/01/16 06:17:53;;;;;;;6.47;0.60;;;;;;;;;;5050916;28;20078;-40
2023/01/16 06:20:20;;;;;;;2.80;0.52;;;;;;;;;;5050369;28;20021;-40
2023/01/16 06:22:46;;;;;;;0.93;0.47;;;;;;;;;;5061070;28;20395;-40
2023/01/16 06:25:12;;;;;;;0.98;0.50;;;;;;;;;;5070320;28;20021;-40
2023/01/16 06:27:38;;;;;;;0.70;0.50;;;;;;;;;;5075051;28;20032;-40
2023/01/16 06:30:06;;;;;;;2.03;0.50;;;;;;;;;;5074634;28;20051;-40
2023/01/16 06:32:32;;;;;;;0.68;0.40;;;;;;;;;;5073924;28;20033;-40
2023/01/16 06:34:58;;;;;;;1.08;0.60;;;;;;;;;;5074531;28;20342;-40
2023/01/16 06:37:24;;;;;;;3.13;0.45;;;;;;;;;;5073933;28;20032;-40
2023/01/16 06:39:49;;;;;;;0.50;0.30;;;;;;;;;;5074471;28;20028;-40
2023/01/16 06:42:15;;;;;;;0.90;0.40;;;;;;;;;;5074104;28;20165;-40
2023/01/16 06:44:41;;;;;;;0.55;0.40;;;;;;;;;;5074118;28;20025;-39
2023/01/16 06:47:08;;;;;;;1.17;0.50;;;;;;;;;;5074327;28;20035;-40
2023/01/16 06:49:34;;;;;;;0.70;0.47;;;;;;;;;;5073913;28;20032;-39
2023/01/16 06:52:00;;;;;;;1.77;0.60;;;;;;;;;;5074732;28;20028;-40
2023/01/16 06:54:26;;;;;;;1.23;0.50;;;;;;;;;;5072878;28;20481;-40
2023/01/16 06:56:52;;;;;;;1.25;0.47;;;;;;;;;;5074647;28;20025;-39
2023/01/16 06:59:18;;;;;;;1.20;0.50;;;;;;;;;;5073249;28;20031;-39
2023/01/16 07:01:44;;;;;;;1.17;0.47;;;;;;;;;;5074825;28;20020;-40
2023/01/16 07:04:10;;;;;;;2.35;0.40;;;;;;;;;;5073129;28;20082;-40
2023/01/16 07:06:38;;;;;;;2.38;0.40;;;;;;;;;;5074355;28;20112;-39
2023/01/16 07:09:04;;;;;;;0.98;0.50;;;;;;;;;;5074017;28;20079;-40
2023/01/16 07:11:30;;;;;;;0.77;0.60;;;;;;;;;;5073422;28;20473;-40
2023/01/16 07:25:00;;;;;;;2.10;0.70;;;;;;;;;;5011125;28;20029;-40
2023/01/16 07:27:26;;;;;;;4.47;0.75;;;;;;;;;;5013138;28;20034;-40
2023/01/16 07:29:52;;;;;;;5.85;0.68;;;;;;;;;;5013765;28;20053;-40
2023/01/16 07:32:18;;;;;;;3.08;0.73;;;;;;;;;;5013212;28;20026;-41
2023/01/16 07:34:44;;;;;;;0.95;0.60;;;;;;;;;;5013077;28;20030;-40
2023/01/16 07:37:10;;;;;;;1.33;0.52;;;;;;;;;;5012524;28;20535;-41
2023/01/16 07:39:37;;;;;;;3.28;1.35;;;;;;;;;;5013255;28;20032;-40
2023/01/16 07:42:06;;;;;;;0.98;0.45;;;;;;;;;;5013514;28;20367;-40
2023/01/16 07:44:33;;;;;;;2.30;0.70;;;;;;;;;;5012755;28;20113;-40
2023/01/16 07:46:59;;;;;;;1.17;0.47;;;;;;;;;;5013898;28;20033;-40
2023/01/16 07:49:25;;;;;;;1.35;0.60;;;;;;;;;;5009810;28;20052;-40
2023/01/16 07:51:51;;;;;;;1.38;1.05;;;;;;;;;;5011969;28;20062;-40
2023/01/16 07:54:17;;;;;;;1.67;1.05;;;;;;;;;;5013763;28;20045;-40
2023/01/16 07:56:43;;;;;;;1.40;0.55;;;;;;;;;;5013681;28;20498;-40
2023/01/16 07:59:09;;;;;;;1.23;0.70;;;;;;;;;;5012675;28;20026;-41
2023/01/16 08:01:35;;;;;;;2.03;0.57;;;;;;;;;;5013257;28;20026;-40
2023/01/16 08:04:01;;;;;;;1.73;0.73;;;;;;;;;;5012902;28;20029;-40
2023/01/16 08:06:27;;;;;;;1.25;1.00;;;;;;;;;;5012685;28;20772;-40
2023/01/16 08:08:53;;;;;;;2.00;0.60;;;;;;;;;;5012961;28;20064;-40
2023/01/16 08:11:38;;;;;;;2.80;0.70;;;;;;;;;;5012033;28;20057;-40
2023/01/16 08:14:05;;;;;;;2.00;0.73;;;;;;;;;;5011498;28;20370;-40
2023/01/16 08:16:31;;;;;;;3.13;0.70;;;;;;;;;;5047796;28;20072;-40
2023/01/16 08:18:57;;;;;;;3.40;0.82;;;;;;;;;;5052188;28;20025;-40
2023/01/16 08:21:23;;;;;;;2.85;1.02;;;;;;;;;;5051753;28;20079;-40
2023/01/16 08:23:49;;;;;;;3.40;1.05;;;;;;;;;;5051848;28;20121;-40
2023/01/16 08:26:15;;;;;;;2.88;0.80;;;;;;;;;;5051956;28;20031;-40
2023/01/16 08:28:41;;;;;;;1.48;0.50;;;;;;;;;;5052167;28;20121;-40
2023/01/16 08:31:08;;;;;;;1.27;0.70;;;;;;;;;;5052660;28;20103;-40
2023/01/16 08:33:41;;;;;;;1.63;0.63;;;;;;;;;;5051343;28;20102;-40
2023/01/16 08:36:08;;;;;;;4.10;0.93;;;;;;;;;;5052308;28;20029;-40
2023/01/16 08:38:35;;;;;;;2.17;0.60;;;;;;;;;;5051157;28;20116;-40
2023/01/16 08:41:01;;;;;;;2.58;0.93;;;;;;;;;;5052329;28;20489;-40
2023/01/16 08:51:50;;;;;;;3.08;0.70;;;;;;;;;;5052178;28;20080;-40
2023/01/16 08:54:16;;;;;;;3.85;0.77;;;;;;;;;;5051668;28;20489;-40
2023/01/16 08:56:42;;;;;;;5.07;1.15;;;;;;;;;;5053292;28;20025;-41
2023/01/16 08:59:10;;;;;;;3.97;1.13;;;;;;;;;;5051569;28;20441;-40
2023/01/16 09:01:36;;;;;;;3.53;0.93;;;;;;;;;;5051892;28;20021;-40
2023/01/16 09:04:02;;;;;;;2.25;0.90;;;;;;;;;;5051774;28;20021;-40
2023/01/16 09:06:28;;;;;;;2.40;0.63;;;;;;;;;;5051393;28;20021;-40
2023/01/16 09:08:54;;;;;;;3.40;1.23;;;;;;;;;;5051635;28;20028;-41
2023/01/16 09:14:05;;;;;;;2.05;1.10;;;;;;;;;;5051388;28;20031;-40
2023/01/16 09:16:30;;;;;;;1.65;1.00;;;;;;;;;;5050568;28;20593;-40
2023/01/16 09:18:56;;;;;;;1.55;0.60;;;;;;;;;;5051091;28;20028;-40
2023/01/16 09:21:24;;;;;;;2.25;1.05;;;;;;;;;;5050992;28;20021;-40
2023/01/16 09:23:50;;;;;;;2.85;1.15;;;;;;;;;;5070597;28;20017;-42
2023/01/16 09:26:17;;;;;;;1.83;0.70;;;;;;;;;;5071088;28;20033;-40
2023/01/16 09:28:43;;;;;;;2.65;0.88;;;;;;;;;;5071199;28;20082;-40
2023/01/16 09:31:09;;;;;;;2.95;0.80;;;;;;;;;;5071762;28;20025;-41
2023/01/16 09:33:36;;;;;;;4.18;0.80;;;;;;;;;;5070892;28;20507;-40
2023/01/16 09:36:03;;;;;;;2.63;1.10;;;;;;;;;;5071649;28;20470;-40
2023/01/16 09:38:29;;;;;;;3.05;0.93;;;;;;;;;;5070325;28;20036;-40
2023/01/16 09:40:56;;;;;;;2.28;0.68;;;;;;;;;;5071481;28;20520;-40
2023/01/16 09:43:40;;;;;;;3.15;1.20;;;;;;;;;;5070112;28;20484;-40
2023/01/16 09:46:13;;;;;;;1.95;0.80;;;;;;;;;;5071520;28;20028;-40
2023/01/16 09:49:00;;;;;;;1.77;0.65;;;;;;;;;;5071151;28;20024;-40
2023/01/16 09:51:31;;;;;;;3.83;0.65;;;;;;;;;;5070631;28;20029;-40
2023/01/16 09:59:38;;;;;;;2.38;0.70;;;;;;;;;;5067589;28;20170;-40
2023/01/16 10:02:09;;;;;;;1.33;0.70;;;;;;;;;;5055094;28;20365;-40
2023/01/16 10:04:36;;;;;;;1.35;0.68;;;;;;;;;;5054786;28;20235;-40
2023/01/16 10:07:08;;;;;;;2.13;0.70;;;;;;;;;;5055462;28;20029;-39
2023/01/16 10:09:43;;;;;;;1.20;0.68;;;;;;;;;;5054331;28;20033;-39
2023/01/16 10:12:11;;;;;;;2.67;0.93;;;;;;;;;;5054931;28;20017;-40
2023/01/16 10:14:39;;;;;;;1.58;0.70;;;;;;;;;;5054160;28;20056;-39
2023/01/16 10:17:18;;;;;;;1.48;0.60;;;;;;;;;;5055387;28;20063;-39
2023/01/16 10:20:02;;;;;;;1.40;0.73;;;;;;;;;;5054824;28;20025;-41
2023/01/16 10:22:40;;;;;;;3.55;0.90;;;;;;;;;;5062181;28;20650;-41
2023/01/16 10:25:14;;;;;;;2.38;0.63;;;;;;;;;;5074557;28;20021;-41
2023/01/16 10:27:59;;;;;;;2.17;0.80;;;;;;;;;;5075017;28;20025;-41
2023/01/16 10:30:29;;;;;;;4.13;0.70;;;;;;;;;;5073518;28;20028;-41
2023/01/16 10:32:59;;;;;;;1.95;0.40;;;;;;;;;;5075157;28;20032;-41
2023/01/16 10:35:32;;;;;;;0.95;0.60;;;;;;;;;;5073318;28;20021;-40
2023/01/16 10:38:06;;;;;;;2.60;0.70;;;;;;;;;;5074677;28;20032;-39
2023/01/16 10:40:33;;;;;;;2.05;0.60;;;;;;;;;;5073718;28;20032;-40
2023/01/16 10:51:16;;;;;;;0.70;0.60;;;;;;;;;;5073597;28;20060;-41
2023/01/16 10:53:42;;;;;;;1.30;0.60;;;;;;;;;;5074211;28;20056;-40
2023/01/16 10:56:08;;;;;;;2.67;0.98;;;;;;;;;;5074658;28;20025;-40
2023/01/16 10:58:35;;;;;;;0.80;0.45;;;;;;;;;;5073779;28;20101;-40
2023/01/16 11:01:01;;;;;;;0.88;0.50;;;;;;;;;;5074356;28;20055;-40
2023/01/16 11:03:46;;;;;;;0.82;0.68;;;;;;;;;;5073085;28;20056;-40
2023/01/16 11:06:15;;;;;;;1.40;0.47;;;;;;;;;;5073423;28;20024;-41
2023/01/16 11:08:42;;;;;;;1.10;0.60;;;;;;;;;;5073718;28;20025;-41
2023/01/16 11:18:27;;;;;;;1.42;0.52;;;;;;;;;;5074243;28;20077;-40
2023/01/16 11:19:27;;;;;;;0.70;0.60;;;;;;;;;;5033531;28;20036;-39
2023/01/16 11:22:06;;;;;;;1.80;0.63;;;;;;;;;;5031028;28;20125;-39
2023/01/16 11:24:33;;;;;;;2.65;1.30;;;;;;;;;;5013216;28;20053;-39
2023/01/16 11:27:00;;;;;;;2.55;0.73;;;;;;;;;;5011927;28;20037;-39
2023/01/16 11:29:31;;;;;;;1.75;0.73;;;;;;;;;;5012333;28;20034;-39
2023/01/16 11:31:59;;;;;;;1.90;1.00;;;;;;;;;;5013906;28;20467;-39
2023/01/16 11:34:26;;;;;;;0.93;0.47;;;;;;;;;;5012785;28;20030;-39
2023/01/16 11:36:54;;;;;;;1.90;0.70;;;;;;;;;;5005287;28;20092;-41
2023/01/16 11:39:22;;;;;;;1.90;0.60;;;;;;;;;;5023350;28;20029;-41
2023/01/16 11:41:49;;;;;;;0.95;0.47;;;;;;;;;;5005889;28;20039;-39
2023/01/16 11:47:06;;;;;;;1.02;0.50;;;;;;;;;;5013749;28;20044;-41
2023/01/16 11:49:48;;;;;;;2.88;0.60;;;;;;;;;;5020239;28;20168;-41
2023/01/16 11:52:36;;;;;;;2.85;1.17;;;;;;;;;;5013559;28;20053;-41
2023/01/16 11:55:03;;;;;;;2.05;0.65;;;;;;;;;;5032918;28;20079;-41
2023/01/16 11:57:38;;;;;;;1.00;0.47;;;;;;;;;;5004471;28;20093;-41
2023/01/16 12:00:23;;;;;;;1.25;0.60;;;;;;;;;;4992882;28;20026;-41
2023/01/16 12:02:54;;;;;;;1.52;0.40;;;;;;;;;;4991949;28;20041;-41
2023/01/16 12:05:53;;;;;;;0.70;0.40;;;;;;;;;;5000238;28;20028;-41
2023/01/16 12:08:38;;;;;;;2.17;0.55;;;;;;;;;;5012434;28;20372;-41
2023/01/16 12:11:04;;;;;;;1.73;0.50;;;;;;;;;;5013792;28;20033;-39
2023/01/16 12:16:23;;;;;;;1.35;0.60;;;;;;;;;;5029522;28;20115;-40
2023/01/16 12:19:02;;;;;;;2.38;1.10;;;;;;;;;;5032325;28;20029;-40
2023/01/16 12:21:31;;;;;;;0.60;0.45;;;;;;;;;;5038230;28;20036;-40
2023/01/16 12:24:09;;;;;;;1.10;0.60;;;;;;;;;;5032181;28;20045;-40
2023/01/16 12:26:54;;;;;;;0.65;0.30;;;;;;;;;;5032218;28;20123;-40
2023/01/16 12:29:29;;;;;;;0.55;0.30;;;;;;;;;;5040932;28;20428;-40
2023/01/16 12:31:58;;;;;;;0.90;0.45;;;;;;;;;;5051538;28;20405;-40
2023/01/16 12:34:33;;;;;;;0.65;0.38;;;;;;;;;;5051667;28;20600;-40
2023/01/16 12:37:12;;;;;;;1.20;0.52;;;;;;;;;;5051947;28;20516;-40
2023/01/16 12:39:45;;;;;;;0.90;0.47;;;;;;;;;;5051836;28;20493;-41
2023/01/16 12:45:19;;;;;;;0.68;0.32;;;;;;;;;;5051022;28;20040;-41
2023/01/16 12:48:04;;;;;;;1.08;0.47;;;;;;;;;;5051912;28;20052;-41
2023/01/16 12:50:33;;;;;;;1.75;0.50;;;;;;;;;;5050811;28;20075;-41
2023/01/16 12:52:59;;;;;;;0.60;0.35;;;;;;;;;;5052059;28;20029;-40
2023/01/16 12:55:31;;;;;;;0.28;0.28;;;;;;;;;;5050962;28;20029;-38
2023/01/16 12:57:57;;;;;;;0.50;0.32;;;;;;;;;;5052161;28;20029;-38
2023/01/16 13:00:25;;;;;;;0.65;0.55;;;;;;;;;;5050726;28;20032;-40
2023/01/16 13:02:58;;;;;;;0.70;0.43;;;;;;;;;;5051666;28;20355;-40
2023/01/16 13:05:26;;;;;;;0.35;0.30;;;;;;;;;;5050804;28;20366;-38
2023/01/16 13:07:56;;;;;;;1.10;0.47;;;;;;;;;;5051744;28;20037;-40
2023/01/16 13:13:29;;;;;;;1.48;0.60;;;;;;;;;;5050522;28;20035;-40
2023/01/16 13:16:10;;;;;;;1.33;0.50;;;;;;;;;;5051162;28;20045;-40
2023/01/16 13:18:36;;;;;;;1.45;0.60;;;;;;;;;;5051330;28;20029;-40
2023/01/16 13:21:03;;;;;;;0.30;0.30;;;;;;;;;;5051794;28;20151;-39
2023/01/16 13:23:33;;;;;;;0.35;0.30;;;;;;;;;;5050058;28;20648;-40
2023/01/16 13:26:03;;;;;;;0.50;0.30;;;;;;;;;;5051444;28;20021;-40
2023/01/16 13:28:44;;;;;;;0.95;0.52;;;;;;;;;;5050404;28;20025;-40
2023/01/16 13:31:19;;;;;;;0.50;0.40;;;;;;;;;;5051396;28;20029;-41
2023/01/16 13:33:47;;;;;;;0.57;0.40;;;;;;;;;;5050833;28;20071;-40
2023/01/16 13:36:33;;;;;;;0.73;0.40;;;;;;;;;;5055553;28;20028;-40
2023/01/16 13:39:05;;;;;;;0.45;0.30;;;;;;;;;;5057830;28;20385;-40
2023/01/16 13:41:35;;;;;;;0.90;0.55;;;;;;;;;;5057200;28;20086;-40
2023/01/16 13:47:06;;;;;;;0.80;0.30;;;;;;;;;;5057967;28;20082;-40
2023/01/16 13:49:32;;;;;;;0.68;0.40;;;;;;;;;;5056994;28;20025;-40
2023/01/16 13:52:00;;;;;;;1.48;0.38;;;;;;;;;;5057957;28;20021;-40
2023/01/16 13:54:37;;;;;;;0.98;0.40;;;;;;;;;;5056803;28;20108;-40
2023/01/16 13:57:07;;;;;;;0.32;0.30;;;;;;;;;;5058341;28;20440;-40
2023/01/16 13:59:36;;;;;;;1.10;0.63;;;;;;;;;;5056612;28;20025;-40
2023/01/16 14:02:18;;;;;;;1.00;0.32;;;;;;;;;;5057852;28;20029;-40
2023/01/16 14:05:03;;;;;;;0.32;0.22;;;;;;;;;;5054678;28;20373;-40
2023/01/16 14:10:43;;;;;;;0.45;0.30;;;;;;;;;;4992052;28;20037;-40
2023/01/16 14:13:15;;;;;;;0.30;0.20;;;;;;;;;;5037676;28;20030;-40
2023/01/16 14:18:41;;;;;;;0.60;0.30;;;;;;;;;;5036880;28;20151;-40
2023/01/16 14:21:26;;;;;;;0.47;0.28;;;;;;;;;;5039030;28;20026;-40
2023/01/16 14:24:02;;;;;;;0.30;0.30;;;;;;;;;;5061166;28;20033;-40
2023/01/16 14:26:28;;;;;;;0.80;0.32;;;;;;;;;;5057163;28;20233;-40
2023/01/16 14:28:55;;;;;;;1.38;0.60;;;;;;;;;;5057056;28;20533;-40
2023/01/16 14:31:23;;;;;;;0.98;0.30;;;;;;;;;;5057977;28;20033;-41
2023/01/16 14:33:49;;;;;;;1.50;0.30;;;;;;;;;;5057236;28;20481;-40
2023/01/16 14:36:18;;;;;;;0.30;0.30;;;;;;;;;;5057714;28;20020;-40
2023/01/16 14:38:46;;;;;;;0.63;0.35;;;;;;;;;;5046421;28;20036;-40
2023/01/16 14:55:32;;;;;;;0.40;0.30;;;;;;;;;;5033065;28;20151;-39
2023/01/16 14:57:59;;;;;;;0.50;0.50;;;;;;;;;;5036106;28;20170;-39
2023/01/16 15:00:26;;;;;;;0.40;0.30;;;;;;;;;;5054996;28;20255;-39
2023/01/16 15:03:03;;;;;;;0.63;0.32;;;;;;;;;;5055436;28;20385;-41
2023/01/16 15:05:53;;;;;;;0.52;0.32;;;;;;;;;;5052805;28;20025;-41
2023/01/16 15:08:31;;;;;;;0.77;0.40;;;;;;;;;;5052718;28;20029;-40
2023/01/16 15:11:30;;;;;;;0.63;0.35;;;;;;;;;;5053967;28;20386;-40
2023/01/16 15:22:00;;;;;;;1.02;0.40;;;;;;;;;;5057919;28;20493;-39
2023/01/16 15:24:27;;;;;;;1.08;0.20;;;;;;;;;;5072672;28;20119;-39
2023/01/16 15:27:04;;;;;;;0.98;0.38;;;;;;;;;;5073598;28;20113;-40
2023/01/16 15:29:48;;;;;;;2.38;0.60;;;;;;;;;;5072553;28;20854;-39
2023/01/16 15:32:21;;;;;;;2.42;0.55;;;;;;;;;;5073109;28;20151;-39
2023/01/16 15:34:47;;;;;;;3.60;0.98;;;;;;;;;;5046682;28;20378;-39
2023/01/16 15:37:21;;;;;;;1.92;0.50;;;;;;;;;;5032859;28;20025;-39
2023/01/16 15:39:48;;;;;;;1.58;0.40;;;;;;;;;;5033171;28;20021;-39
2023/01/16 15:48:15;;;;;;;2.83;0.85;;;;;;;;;;5051267;28;20098;-39
2023/01/16 15:50:43;;;;;;;3.13;0.63;;;;;;;;;;5054671;28;20033;-38
2023/01/16 15:53:09;;;;;;;4.57;1.13;;;;;;;;;;5052087;28;20063;-38
2023/01/16 15:55:38;;;;;;;11.05;1.30;;;;;;;;;;5053097;28;20025;-38
2023/01/16 15:58:04;;;;;;;6.82;1.05;;;;;;;;;;5052611;28;20039;-39
2023/01/16 16:00:30;;;;;;;6.22;1.02;;;;;;;;;;5051345;28;20797;-37
2023/01/16 16:03:01;;;;;;;8.57;0.77;;;;;;;;;;5053122;28;20056;-37
2023/01/16 16:05:27;;;;;;;4.88;0.80;;;;;;;;;;5052007;28;20028;-37
2023/01/16 16:07:54;;;;;;;3.83;1.17;;;;;;;;;;5053405;28;20025;-38
2023/01/16 16:13:05;;;;;;;4.47;1.23;;;;;;;;;;5053126;28;20055;-37
2023/01/16 16:18:18;;;;;;;4.47;0.77;;;;;;;;;;5051159;28;20048;-44
2023/01/16 16:20:45;;;;;;;5.05;0.77;;;;;;;;;;5052681;28;20036;-40
2023/01/16 16:23:24;;;;;;;8.40;1.02;;;;;;;;;;5052768;28;20070;-41
2023/01/16 16:25:56;;;;;;;5.13;1.00;;;;;;;;;;5053315;28;20025;-41
2023/01/16 16:28:22;;;;;;;;;;;;;;;;;;5037739;28;20078;-40
2023/01/16 16:30:56;;;;;;;5.18;0.93;;;;;;;;;;5053722;28;19940;-39
2023/01/16 16:33:22;;;;;;;9.93;1.70;;;;;;;;;;5033189;28;20042;-42
2023/01/16 16:35:50;;;;;;;10.70;1.42;;;;;;;;;;5062383;28;20029;-40